Time;durP1;ratioP1;P1;durP2;ratioP2;P2;SDS_P1;SDS_P2;PMS_P1;PMS_P2;Temp;Humidity;BMP_temperature;BMP_pressure;BME280_temperature;BME280_humidity;BME280_pressure;Samples;Min_cycle;Max_cycle;Signal;HPM_P1;HPM_P2
2022/08/27 00:01:43;;;;;;;10.13;6.47;;;;;;;19.77;63.83;99615.72;30856323;28;96517;-58
2022/08/27 00:16:43;;;;;;;9.13;6.07;;;;;;;19.67;64.46;99610.97;30854647;28;96582;-58
2022/08/27 00:31:44;;;;;;;13.55;6.60;;;;;;;19.49;64.82;99616.56;30853939;28;101843;-59
2022/08/27 00:46:49;;;;;;;12.88;7.50;;;;;;;19.21;66.32;99618.25;30852862;28;96861;-58
2022/08/27 01:17:11;;;;;;;12.43;6.00;;;;;;;18.92;66.64;99613.66;30869761;28;97017;-58
2022/08/27 01:32:16;;;;;;;15.73;6.87;;;;;;;18.75;67.38;99607.31;30870461;28;96679;-58
2022/08/27 01:47:18;;;;;;;11.87;6.20;;;;;;;18.56;67.86;99603.97;30868374;28;97532;-58
2022/08/27 02:02:19;;;;;;;9.20;5.77;;;;;;;18.39;68.18;99598.47;30867746;28;96687;-58
2022/08/27 02:17:20;;;;;;;17.90;6.80;;;;;;;18.23;68.47;99603.53;30865127;28;96711;-58
2022/08/27 02:32:21;;;;;;;12.65;5.95;;;;;;;18.12;69.08;99598.97;30864679;28;96806;-58
2022/08/27 02:47:21;;;;;;;15.30;7.25;;;;;;;17.97;69.23;99595.91;30862244;28;96700;-58
2022/08/27 03:02:22;;;;;;;16.20;9.00;;;;;;;17.78;69.71;99620.22;30861100;28;97128;-58
2022/08/27 03:32:41;;;;;;;12.50;7.10;;;;;;;17.17;70.00;99657.16;30858668;28;96605;-59
2022/08/27 03:47:42;;;;;;;9.73;6.25;;;;;;;17.07;71.68;99673.81;30855452;28;97467;-59
2022/08/27 04:02:43;;;;;;;17.23;7.15;;;;;;;16.89;72.35;99674.66;30856785;28;96682;-59
2022/08/27 04:17:43;;;;;;;12.37;9.27;;;;;;;17.34;73.43;99654.63;30853943;28;96733;-58
2022/08/27 04:32:44;;;;;;;18.00;12.13;;;;;;;17.79;73.66;99642.59;30862000;28;96600;-59
2022/08/27 04:47:44;;;;;;;20.30;12.38;;;;;;;18.19;74.53;99634.72;30873790;28;96845;-58
2022/08/27 05:02:44;;;;;;;13.88;10.27;;;;;;;18.82;74.69;99635.00;30871197;28;96753;-58
2022/08/27 05:17:46;;;;;;;18.70;9.23;;;;;;;19.59;74.40;99660.00;30867482;28;96618;-58
2022/08/27 05:32:46;;;;;;;;;;;;;;;20.32;73.46;99670.13;30868677;28;97543;-58
2022/08/27 05:47:46;;;;;;;20.00;12.82;;;;;;;21.06;72.04;99664.38;30867519;28;96817;-59
2022/08/27 06:02:47;;;;;;;19.10;9.73;;;;;;;21.77;70.40;99660.84;30864689;28;107205;-59
2022/08/27 06:17:47;;;;;;;10.77;7.23;;;;;;;22.75;68.92;99687.88;30860253;28;107421;-58
2022/08/27 06:32:47;;;;;;;15.80;8.90;;;;;;;23.87;66.27;99685.81;30859782;28;108728;-58
2022/08/27 06:47:47;;;;;;;18.92;10.57;;;;;;;24.82;63.35;99692.53;30856416;28;97284;-58
2022/08/27 07:02:49;;;;;;;10.05;6.32;;;;;;;25.56;60.00;99673.69;30855914;28;96691;-58
2022/08/27 07:17:50;;;;;;;13.63;6.43;;;;;;;26.67;56.60;99683.09;30855732;28;96781;-58
2022/08/27 07:32:50;;;;;;;8.85;5.28;;;;;;;27.84;52.44;99678.31;30855203;28;96666;-59
2022/08/27 07:47:51;;;;;;;9.48;5.53;;;;;;;28.59;48.70;99709.38;30852051;28;96789;-59
2022/08/27 08:02:51;;;;;;;11.23;6.05;;;;;;;28.99;47.55;99686.97;30852311;28;96640;-59
2022/08/27 08:17:51;;;;;;;10.50;5.45;;;;;;;30.57;45.09;99705.56;30851772;28;97391;-59
2022/08/27 08:32:52;;;;;;;12.48;5.40;;;;;;;31.56;42.18;99726.38;30848836;28;96630;-59
2022/08/27 08:47:58;;;;;;;9.80;5.40;;;;;;;31.72;40.95;99727.56;30846626;28;99084;-59
2022/08/27 09:02:58;;;;;;;8.20;4.67;;;;;;;31.04;42.17;99724.34;30847239;28;96806;-59
2022/08/27 09:18:07;;;;;;;11.23;4.90;;;;;;;30.93;39.73;99747.75;30854317;28;96611;-59
2022/08/27 09:33:07;;;;;;;9.27;5.23;;;;;;;29.50;42.31;99759.19;30865833;28;97425;-59
2022/08/27 09:48:17;;;;;;;10.07;4.78;;;;;;;32.33;41.63;99736.94;30863618;28;96615;-61
2022/08/27 10:03:21;;;;;;;7.40;3.90;;;;;;;42.11;27.36;99733.19;30862915;28;96826;-60
2022/08/27 10:18:30;;;;;;;10.30;3.27;;;;;;;40.63;24.53;99728.00;30859988;28;96689;-59
2022/08/27 10:33:49;;;;;;;10.00;3.77;;;;;;;37.59;28.13;99748.47;30858068;28;97561;-61
2022/08/27 10:49:19;;;;;;;9.23;3.67;;;;;;;35.86;29.47;99744.13;30857557;28;96696;-59
2022/08/27 11:04:24;;;;;;;7.87;4.10;;;;;;;37.13;29.85;99727.97;30847758;28;96872;-59
2022/08/27 11:19:35;;;;;;;7.23;3.80;;;;;;;35.25;31.73;99726.47;30856402;28;97451;-59
2022/08/27 11:34:40;;;;;;;12.40;4.27;;;;;;;35.00;32.48;99711.84;30854972;28;97020;-59
2022/08/27 11:49:49;;;;;;;8.93;4.27;;;;;;;35.12;32.43;99690.81;30853080;28;96997;-59
2022/08/27 12:04:54;;;;;;;6.03;2.77;;;;;;;35.40;32.19;99666.81;30851751;28;97269;-59
2022/08/27 12:20:29;;;;;;;6.60;2.87;;;;;;;35.61;30.37;99632.59;30850135;28;97690;-59
2022/08/27 12:35:40;;;;;;;5.23;3.10;;;;;;;34.71;30.89;99641.75;30821823;28;96908;-59
2022/08/27 12:50:41;;;;;;;5.70;2.70;;;;;;;34.28;31.45;99656.88;30852153;28;97032;-59
2022/08/27 13:05:44;;;;;;;5.75;2.95;;;;;;;35.32;30.67;99645.63;30870230;28;96789;-59
2022/08/27 13:20:45;;;;;;;7.53;3.10;;;;;;;35.02;31.27;99648.66;30866911;28;96791;-59
2022/08/27 13:35:46;;;;;;;5.83;4.60;;;;;;;33.67;32.70;99643.72;30865627;28;96669;-59
2022/08/27 13:50:54;;;;;;;7.50;3.10;;;;;;;32.64;34.70;99653.13;30864329;28;97522;-59
2022/08/27 14:05:55;;;;;;;9.07;3.87;;;;;;;31.67;36.33;99653.41;30863057;28;97338;-59
2022/08/27 14:20:57;;;;;;;7.63;2.70;;;;;;;30.25;38.48;99647.03;30861851;28;97422;-59
2022/08/27 14:35:58;;;;;;;5.20;3.00;;;;;;;28.98;40.23;99658.75;30860496;28;96667;-60
2022/08/27 14:51:02;;;;;;;5.55;3.10;;;;;;;28.29;42.67;99654.03;30857382;28;97098;-59
2022/08/27 15:06:02;;;;;;;7.43;3.93;;;;;;;27.79;44.97;99651.03;30857003;28;96628;-59
2022/08/27 15:21:02;;;;;;;7.82;3.88;;;;;;;27.55;47.13;99637.47;30855965;28;97325;-59
2022/08/27 15:36:03;;;;;;;3.97;3.42;;;;;;;27.57;48.10;99630.59;30854052;28;97193;-59
2022/08/27 15:51:08;;;;;;;5.82;3.58;;;;;;;27.75;48.31;99619.91;30852821;28;97421;-59
2022/08/27 16:06:09;;;;;;;6.43;3.60;;;;;;;28.27;46.94;99611.63;30852189;28;96818;-59
2022/08/27 16:21:09;;;;;;;9.07;4.05;;;;;;;28.15;46.34;99620.34;30850320;28;96637;-59
2022/08/27 16:36:10;;;;;;;5.70;3.05;;;;;;;27.84;46.35;99608.00;30849116;28;98449;-59
2022/08/27 16:51:17;;;;;;;8.32;3.80;;;;;;;27.63;46.45;99618.44;30848060;28;96802;-59
2022/08/27 17:06:19;;;;;;;5.50;3.20;;;;;;;27.05;47.20;99610.53;30847934;28;97399;-59
2022/08/27 17:21:20;;;;;;;7.20;3.93;;;;;;;26.30;48.57;99632.72;30847806;28;96667;-59
2022/08/27 17:36:22;;;;;;;7.63;4.10;;;;;;;25.80;49.92;99641.03;30851383;28;97281;-59
2022/08/27 17:51:22;;;;;;;8.97;6.93;;;;;;;25.20;51.90;99649.31;30866556;28;97110;-59
2022/08/27 18:06:24;;;;;;;7.65;5.57;;;;;;;24.76;53.74;99660.97;30866615;28;97023;-59
2022/08/27 18:21:24;;;;;;;11.33;6.13;;;;;;;24.34;55.88;99681.97;30864275;28;97137;-59
2022/08/27 18:36:25;;;;;;;9.60;5.97;;;;;;;23.94;57.42;99687.19;30862475;28;96617;-59
2022/08/27 18:51:26;;;;;;;13.33;5.50;;;;;;;23.52;59.10;99693.59;30859567;28;98682;-59
2022/08/27 19:06:26;;;;;;;8.68;6.18;;;;;;;23.18;59.84;99704.91;30860068;28;96888;-59
2022/08/27 19:21:26;;;;;;;10.30;6.65;;;;;;;22.86;61.33;99702.31;30858860;28;96848;-59
2022/08/27 19:36:27;;;;;;;;;;;;;;;22.65;62.45;99699.50;30857455;28;96812;-59
2022/08/27 19:51:27;;;;;;;9.40;7.23;;;;;;;22.36;63.48;99701.72;30856783;28;96894;-59
2022/08/27 20:06:28;;;;;;;10.00;7.03;;;;;;;22.16;64.63;99708.63;30855196;28;97182;-59
2022/08/27 20:21:28;;;;;;;13.47;8.27;;;;;;;21.98;65.29;99729.63;30854342;28;96617;-59
2022/08/27 20:36:30;;;;;;;19.13;8.45;;;;;;;21.92;65.82;99733.34;30851256;28;96703;-58
2022/08/27 20:51:30;;;;;;;11.63;8.43;;;;;;;21.84;66.17;99722.16;30850118;28;97338;-59
2022/08/27 21:06:31;;;;;;;14.53;10.33;;;;;;;21.64;66.93;99727.13;30849895;28;97115;-59
2022/08/27 21:21:31;;;;;;;15.20;10.80;;;;;;;21.43;68.28;99736.06;30867308;28;96650;-58
2022/08/27 21:36:32;;;;;;;17.40;14.37;;;;;;;21.23;69.26;99734.75;30869893;28;97162;-59
2022/08/27 21:51:32;;;;;;;22.20;15.38;;;;;;;21.10;70.12;99749.50;30868375;28;97809;-59
2022/08/27 22:06:33;;;;;;;21.17;17.10;;;;;;;20.94;71.22;99753.88;30868129;28;96945;-59
2022/08/27 22:21:33;;;;;;;23.30;18.83;;;;;;;20.62;72.22;99762.56;30866666;28;97162;-58
2022/08/27 22:36:33;;;;;;;22.37;18.67;;;;;;;20.50;73.37;99756.41;30864934;28;96699;-59
2022/08/27 22:51:34;;;;;;;27.07;21.90;;;;;;;20.45;74.05;99762.59;30862995;28;96806;-58
2022/08/27 23:06:34;;;;;;;34.87;24.03;;;;;;;20.41;74.84;99755.22;30862217;28;96721;-58
2022/08/27 23:21:35;;;;;;;34.50;25.23;;;;;;;20.30;75.49;99751.53;30860099;28;110926;-58
2022/08/27 23:36:35;;;;;;;30.93;23.17;;;;;;;20.17;76.05;99752.66;30859411;28;96714;-59
2022/08/27 23:51:36;;;;;;;;;;;;;;;20.03;76.60;99730.50;30858222;28;96745;-59
